createdAt,value
2017-07-21T00:00:49.265Z,5.30
2017-07-21T00:03:17.577Z,5.70
2017-07-21T00:05:45.154Z,5.83
2017-07-21T00:08:12.738Z,5.80
2017-07-21T00:10:40.389Z,6.23
2017-07-21T00:13:07.941Z,6.47
2017-07-21T00:15:35.607Z,6.07
2017-07-21T00:18:03.330Z,5.63
2017-07-21T00:20:30.865Z,5.53
2017-07-21T00:22:58.597Z,5.63
2017-07-21T00:25:26.167Z,5.47
2017-07-21T00:27:54.548Z,6.00
2017-07-21T00:30:22.887Z,5.73
2017-07-21T00:32:50.428Z,6.53
2017-07-21T00:35:18.049Z,5.40
2017-07-21T00:37:46.360Z,5.50
2017-07-21T00:40:13.946Z,5.33
2017-07-21T00:42:41.477Z,5.50
2017-07-21T00:45:09.010Z,5.77
2017-07-21T00:47:36.632Z,6.67
2017-07-21T00:50:04.186Z,5.63
2017-07-21T00:52:31.777Z,6.30
2017-07-21T00:54:59.332Z,5.90
2017-07-21T00:57:27.646Z,6.10
2017-07-21T00:59:55.226Z,5.80
2017-07-21T01:02:22.840Z,5.17
2017-07-21T01:04:50.436Z,6.30
2017-07-21T01:07:17.993Z,6.07
2017-07-21T01:09:45.547Z,6.17
2017-07-21T01:12:13.123Z,6.00
2017-07-21T01:14:40.685Z,6.13
2017-07-21T01:17:08.246Z,6.10
2017-07-21T01:19:35.829Z,7.10
2017-07-21T01:22:04.164Z,7.00
2017-07-21T01:24:31.801Z,6.30
2017-07-21T01:26:59.339Z,5.80
2017-07-21T01:29:26.917Z,6.27
2017-07-21T01:31:54.497Z,6.70
2017-07-21T01:34:22.063Z,6.30
2017-07-21T01:36:49.614Z,5.90
2017-07-21T01:39:17.253Z,6.23
2017-07-21T01:41:44.793Z,7.00
2017-07-21T01:44:12.543Z,6.93
2017-07-21T01:46:40.849Z,6.60
2017-07-21T01:49:08.434Z,7.00
2017-07-21T01:51:35.991Z,7.40
2017-07-21T01:54:03.546Z,6.63
2017-07-21T01:56:31.130Z,7.13
2017-07-21T01:58:58.685Z,7.00
2017-07-21T02:01:26.264Z,6.77
2017-07-21T02:03:54.584Z,6.53
2017-07-21T02:06:22.178Z,6.50
2017-07-21T02:08:49.729Z,6.60
2017-07-21T02:11:17.269Z,6.50
2017-07-21T02:13:44.856Z,6.37
2017-07-21T02:16:12.401Z,6.40
2017-07-21T02:18:39.961Z,7.20
2017-07-21T02:21:07.550Z,5.87
2017-07-21T02:23:35.107Z,5.90
2017-07-21T02:26:03.521Z,6.80
2017-07-21T02:28:31.115Z,6.37
2017-07-21T02:30:58.676Z,6.90
2017-07-21T02:33:26.226Z,6.30
2017-07-21T02:35:53.819Z,6.63
2017-07-21T02:38:22.121Z,6.90
2017-07-21T02:40:49.734Z,7.00
2017-07-21T02:43:17.306Z,6.67
2017-07-21T02:45:45.703Z,6.70
2017-07-21T02:48:13.250Z,6.97
2017-07-21T02:50:41.589Z,6.60
2017-07-21T02:53:09.144Z,7.10
2017-07-21T02:55:36.689Z,6.80
2017-07-21T02:58:04.263Z,7.30
2017-07-21T03:00:31.813Z,6.60
2017-07-21T03:02:59.401Z,7.23
2017-07-21T03:05:27.724Z,6.53
2017-07-21T03:07:55.292Z,5.80
2017-07-21T03:10:22.867Z,6.20
2017-07-21T03:12:50.408Z,6.20
2017-07-21T03:15:17.982Z,5.90
2017-07-21T03:17:45.637Z,5.60
2017-07-21T03:20:13.182Z,5.97
2017-07-21T03:23:05.530Z,6.20
2017-07-21T03:25:33.118Z,6.17
2017-07-21T03:28:00.654Z,5.50
2017-07-21T03:30:28.242Z,5.53
2017-07-21T03:32:56.746Z,6.20
2017-07-21T03:35:24.281Z,5.67
2017-07-21T03:37:52.643Z,6.10
2017-07-21T03:40:20.197Z,5.37
2017-07-21T03:42:47.753Z,6.17
2017-07-21T03:45:15.347Z,6.00
2017-07-21T03:47:43.664Z,6.60
2017-07-21T03:50:11.208Z,7.17
2017-07-21T03:52:38.777Z,5.90
2017-07-21T03:55:06.335Z,6.37
2017-07-21T03:57:33.919Z,6.40
2017-07-21T04:00:01.453Z,6.00
2017-07-21T04:02:29.113Z,5.97
2017-07-21T04:04:56.808Z,6.17
2017-07-21T04:07:24.378Z,6.30
2017-07-21T04:09:52.694Z,6.57
2017-07-21T04:12:20.290Z,6.20
2017-07-21T04:14:47.824Z,6.70
2017-07-21T04:17:15.366Z,6.10
2017-07-21T04:19:42.974Z,6.80
2017-07-21T04:22:10.526Z,6.80
2017-07-21T04:24:38.081Z,6.57
2017-07-21T04:27:05.784Z,6.13
2017-07-21T04:29:33.339Z,5.70
2017-07-21T04:32:00.956Z,6.10
2017-07-21T04:34:28.490Z,6.40
2017-07-21T04:36:56.101Z,5.90
2017-07-21T04:39:24.464Z,7.53
2017-07-21T04:41:52.813Z,6.10
2017-07-21T04:44:20.409Z,6.73
2017-07-21T04:46:47.946Z,7.07
2017-07-21T04:49:15.567Z,7.63
2017-07-21T04:51:43.134Z,6.67
2017-07-21T04:54:10.687Z,7.00
2017-07-21T04:56:38.259Z,7.07
2017-07-21T04:59:05.807Z,7.20
2017-07-21T05:01:33.361Z,7.97
2017-07-21T05:04:00.950Z,7.90
2017-07-21T05:06:28.497Z,8.07
2017-07-21T05:08:56.057Z,6.80
2017-07-21T05:11:23.644Z,7.50
2017-07-21T05:13:51.190Z,7.13
2017-07-21T05:16:18.745Z,6.80
2017-07-21T05:18:46.310Z,7.30
2017-07-21T05:21:13.888Z,6.77
2017-07-21T05:23:42.354Z,7.43
2017-07-21T05:26:09.894Z,6.83
2017-07-21T05:28:37.473Z,7.23
2017-07-21T05:31:05.970Z,6.70
2017-07-21T05:33:34.332Z,6.47
2017-07-21T05:36:01.865Z,7.00
2017-07-21T05:38:29.414Z,6.83
2017-07-21T05:40:56.984Z,6.77
2017-07-21T05:43:24.533Z,7.73
2017-07-21T05:45:52.091Z,6.40
2017-07-21T05:48:19.727Z,7.10
2017-07-21T05:50:47.285Z,6.70
2017-07-21T05:53:14.838Z,6.63
2017-07-21T05:55:42.410Z,6.43
2017-07-21T05:58:10.035Z,6.40
2017-07-21T06:00:37.620Z,7.67
2017-07-21T06:03:05.282Z,7.10
2017-07-21T06:05:32.865Z,6.70
2017-07-21T06:08:00.417Z,9.60
2017-07-21T06:10:28.177Z,10.10
2017-07-21T06:12:55.734Z,9.20
2017-07-21T06:15:23.488Z,9.80
2017-07-21T06:17:51.066Z,9.10
2017-07-21T06:20:18.750Z,9.00
2017-07-21T06:22:46.455Z,9.77
2017-07-21T06:25:14.021Z,9.17
2017-07-21T06:27:41.643Z,9.33
2017-07-21T06:30:09.964Z,10.07
2017-07-21T06:32:37.536Z,9.43
2017-07-21T06:35:05.160Z,8.40
2017-07-21T06:37:32.751Z,9.27
2017-07-21T06:40:00.350Z,7.80
2017-07-21T06:42:28.699Z,7.80
2017-07-21T06:44:56.313Z,8.60
2017-07-21T06:47:23.858Z,8.03
2017-07-21T06:49:51.554Z,7.50
2017-07-21T06:52:19.106Z,8.17
2017-07-21T06:54:46.905Z,8.70
2017-07-21T06:57:14.536Z,9.37
2017-07-21T06:59:42.137Z,9.00
2017-07-21T07:02:10.446Z,8.73
2017-07-21T07:04:38.025Z,8.37
2017-07-21T07:07:05.569Z,8.90
2017-07-21T07:09:33.108Z,7.87
2017-07-21T07:12:00.699Z,8.73
2017-07-21T07:14:28.234Z,8.50
2017-07-21T07:16:55.840Z,7.80
2017-07-21T07:19:23.395Z,7.50
2017-07-21T07:21:51.070Z,8.53
2017-07-21T07:24:18.651Z,7.57
2017-07-21T07:26:46.979Z,7.50
2017-07-21T07:29:14.521Z,6.07
2017-07-21T07:31:42.122Z,5.23
2017-07-21T07:34:09.667Z,5.90
2017-07-21T07:36:37.212Z,5.33
2017-07-21T07:39:04.810Z,5.60
2017-07-21T07:41:33.140Z,4.30
2017-07-21T07:44:00.719Z,3.67
2017-07-21T07:46:28.276Z,4.73
2017-07-21T07:48:55.840Z,6.03
2017-07-21T07:51:23.461Z,5.43
2017-07-21T07:53:51.156Z,5.23
2017-07-21T07:56:18.747Z,5.83
2017-07-21T07:58:47.070Z,6.23
2017-07-21T08:01:14.700Z,6.53
2017-07-21T08:03:42.261Z,6.13
2017-07-21T08:06:10.030Z,5.43
2017-07-21T08:08:37.617Z,5.33
2017-07-21T08:11:05.194Z,6.07
2017-07-21T08:13:32.731Z,5.97
2017-07-21T08:16:00.316Z,6.07
2017-07-21T08:18:27.874Z,5.10
2017-07-21T08:20:55.455Z,5.00
2017-07-21T08:23:23.796Z,4.60
2017-07-21T08:25:51.356Z,3.77
2017-07-21T08:28:18.929Z,4.77
2017-07-21T08:30:46.476Z,4.40
2017-07-21T08:33:14.021Z,4.27
2017-07-21T08:35:41.682Z,3.80
2017-07-21T08:38:09.243Z,3.73
2017-07-21T08:40:36.841Z,4.30
2017-07-21T08:43:05.142Z,4.40
2017-07-21T08:45:32.706Z,4.07
2017-07-21T08:48:00.282Z,3.60
2017-07-21T08:50:27.813Z,3.70
2017-07-21T08:52:55.367Z,4.10
2017-07-21T08:55:22.945Z,3.50
2017-07-21T08:57:50.493Z,2.53
2017-07-21T09:00:18.063Z,2.50
2017-07-21T09:02:45.613Z,2.53
2017-07-21T09:05:13.168Z,2.30
2017-07-21T09:07:40.768Z,2.93
2017-07-21T09:10:08.365Z,2.63
2017-07-21T09:12:35.905Z,2.30
2017-07-21T09:15:04.218Z,2.43
2017-07-21T09:17:31.803Z,2.60
2017-07-21T09:19:59.351Z,2.50
2017-07-21T09:22:26.978Z,2.73
2017-07-21T09:24:54.526Z,3.10
2017-07-21T09:27:22.993Z,2.60
2017-07-21T09:29:51.334Z,2.80
2017-07-21T09:32:18.882Z,3.00
2017-07-21T09:34:46.416Z,3.13
2017-07-21T09:37:13.983Z,3.40
2017-07-21T09:39:41.529Z,2.90
2017-07-21T09:42:09.113Z,2.50
2017-07-21T09:44:36.663Z,2.73
2017-07-21T09:47:04.246Z,3.50
2017-07-21T09:49:31.798Z,2.70
2017-07-21T09:51:59.377Z,3.23
2017-07-21T09:54:26.908Z,3.00
2017-07-21T09:56:54.456Z,3.30
2017-07-21T09:59:22.037Z,3.70
2017-07-21T10:01:49.713Z,3.50
2017-07-21T10:04:17.266Z,3.63
2017-07-21T10:06:44.837Z,3.00
2017-07-21T10:09:13.175Z,3.00
2017-07-21T10:11:40.725Z,2.83
2017-07-21T10:14:08.272Z,3.30
2017-07-21T10:16:35.819Z,3.33
2017-07-21T10:19:03.469Z,2.73
2017-07-21T10:21:31.157Z,3.33
2017-07-21T10:23:58.821Z,3.57
2017-07-21T10:26:26.402Z,2.80
2017-07-21T10:28:54.019Z,3.13
2017-07-21T10:31:21.643Z,2.80
2017-07-21T10:33:49.981Z,3.53
2017-07-21T10:36:17.570Z,3.33
2017-07-21T10:38:45.101Z,3.30
2017-07-21T10:41:12.657Z,3.03
2017-07-21T10:43:40.237Z,3.30
2017-07-21T10:46:07.795Z,3.43
2017-07-21T10:48:35.336Z,3.47
2017-07-21T10:51:02.921Z,2.90
2017-07-21T10:53:30.469Z,3.20
2017-07-21T10:55:58.035Z,3.70
2017-07-21T10:58:25.591Z,3.90
2017-07-21T11:00:53.159Z,5.00
2017-07-21T11:03:20.765Z,3.50
2017-07-21T11:05:48.312Z,5.67
2017-07-21T11:08:15.866Z,4.33
2017-07-21T11:10:43.467Z,4.50
2017-07-21T11:13:11.007Z,6.00
2017-07-21T11:15:38.552Z,3.33
2017-07-21T11:18:06.124Z,3.77
2017-07-21T11:20:33.669Z,3.97
2017-07-21T11:23:01.254Z,3.67
2017-07-21T11:25:28.872Z,3.30
2017-07-21T11:27:56.418Z,3.70
2017-07-21T11:30:24.104Z,3.43
2017-07-21T11:32:51.670Z,3.20
2017-07-21T11:35:19.208Z,3.53
2017-07-21T11:37:46.786Z,3.43
2017-07-21T11:40:14.425Z,3.63
2017-07-21T11:42:42.089Z,3.60
2017-07-21T11:45:09.701Z,3.40
2017-07-21T11:47:37.241Z,3.63
2017-07-21T11:50:04.790Z,3.60
2017-07-21T11:52:32.356Z,3.60
2017-07-21T11:54:59.890Z,4.53
2017-07-21T11:57:27.519Z,4.30
2017-07-21T11:59:55.819Z,3.70
2017-07-21T12:02:23.363Z,3.67
2017-07-21T12:04:51.032Z,3.53
2017-07-21T12:07:18.572Z,4.27
2017-07-21T12:09:46.341Z,3.90
2017-07-21T12:12:13.910Z,3.70
2017-07-21T12:14:41.448Z,3.50
2017-07-21T12:17:09.796Z,3.60
2017-07-21T12:19:38.284Z,4.07
2017-07-21T12:22:05.849Z,3.70
2017-07-21T12:24:34.193Z,3.33
2017-07-21T12:27:01.742Z,4.07
2017-07-21T12:29:29.330Z,4.80
2017-07-21T12:31:56.887Z,3.87
2017-07-21T12:34:24.436Z,4.03
2017-07-21T12:36:52.042Z,4.53
2017-07-21T12:39:19.571Z,4.13
2017-07-21T12:41:47.122Z,3.80
2017-07-21T12:44:14.710Z,4.07
2017-07-21T12:46:43.165Z,4.30
2017-07-21T12:49:10.713Z,3.50
2017-07-21T12:51:38.298Z,4.27
2017-07-21T12:54:06.803Z,4.30
2017-07-21T12:56:34.361Z,4.17
2017-07-21T12:59:01.958Z,4.10
2017-07-21T13:01:29.654Z,3.90
2017-07-21T13:03:58.059Z,4.20
2017-07-21T13:06:25.617Z,3.80
2017-07-21T13:08:53.365Z,3.87
2017-07-21T13:11:20.942Z,4.03
2017-07-21T13:13:48.526Z,4.00
2017-07-21T13:16:16.202Z,4.60
2017-07-21T13:18:43.749Z,3.90
2017-07-21T13:21:11.382Z,4.23
2017-07-21T13:23:38.958Z,4.23
2017-07-21T13:26:06.526Z,4.10
2017-07-21T13:28:34.116Z,4.17
2017-07-21T13:31:02.538Z,4.33
2017-07-21T13:33:30.101Z,4.07
2017-07-21T13:35:57.794Z,4.53
2017-07-21T13:38:25.509Z,4.30
2017-07-21T13:40:53.079Z,4.10
2017-07-21T13:43:20.827Z,4.40
2017-07-21T13:45:48.378Z,3.90
2017-07-21T13:48:15.977Z,4.00
2017-07-21T13:50:43.514Z,3.80
2017-07-21T13:53:11.129Z,4.27
2017-07-21T13:55:39.482Z,3.60
2017-07-21T13:58:07.052Z,3.80
2017-07-21T14:00:34.625Z,4.03
2017-07-21T14:03:02.994Z,3.97
2017-07-21T14:05:30.575Z,3.87
2017-07-21T14:07:58.121Z,4.10
2017-07-21T14:10:26.465Z,4.07
2017-07-21T14:12:54.018Z,4.00
2017-07-21T14:15:21.566Z,4.17
2017-07-21T14:17:49.163Z,4.30
2017-07-21T14:20:16.696Z,4.30
2017-07-21T14:22:44.254Z,4.33
2017-07-21T14:25:11.848Z,4.20
2017-07-21T14:27:40.163Z,4.10
2017-07-21T14:30:07.750Z,4.17
2017-07-21T14:32:35.340Z,4.40
2017-07-21T14:35:03.795Z,3.87
2017-07-21T14:37:31.433Z,3.50
2017-07-21T14:39:58.976Z,4.20
2017-07-21T14:42:26.565Z,3.67
2017-07-21T14:44:54.108Z,3.40
2017-07-21T14:47:21.698Z,4.30
2017-07-21T14:49:49.527Z,4.63
2017-07-21T14:52:17.180Z,4.20
2017-07-21T14:54:44.720Z,4.43
2017-07-21T14:57:12.299Z,4.43
2017-07-21T14:59:39.866Z,4.17
2017-07-21T15:02:07.417Z,4.30
2017-07-21T15:04:35.009Z,3.90
2017-07-21T15:07:02.611Z,4.10
2017-07-21T15:09:30.150Z,4.00
2017-07-21T15:11:58.632Z,3.90
2017-07-21T15:14:26.224Z,4.10
2017-07-21T15:16:53.896Z,4.10
2017-07-21T15:19:21.507Z,4.17
2017-07-21T15:21:49.815Z,4.37
2017-07-21T15:24:17.360Z,4.00
2017-07-21T15:26:45.105Z,3.97
2017-07-21T15:29:13.429Z,4.20
2017-07-21T15:31:40.988Z,4.53
2017-07-21T15:34:08.571Z,3.50
2017-07-21T15:36:36.118Z,4.33
2017-07-21T15:39:03.800Z,4.33
2017-07-21T15:41:31.338Z,3.80
2017-07-21T15:43:58.929Z,3.40
2017-07-21T15:46:27.227Z,4.07
2017-07-21T15:48:54.779Z,4.00
2017-07-21T15:51:22.383Z,4.30
2017-07-21T15:53:49.922Z,4.00
2017-07-21T15:56:17.471Z,4.30
2017-07-21T15:58:45.134Z,3.70
2017-07-21T16:01:12.661Z,4.10
2017-07-21T16:03:40.232Z,4.23
2017-07-21T16:06:07.906Z,4.07
2017-07-21T16:08:35.455Z,3.80
2017-07-21T16:11:03.042Z,3.90
2017-07-21T16:13:30.583Z,4.00
2017-07-21T16:15:58.120Z,4.40
2017-07-21T16:18:25.710Z,3.63
2017-07-21T16:20:53.305Z,4.07
2017-07-21T16:23:20.848Z,4.60
2017-07-21T16:25:48.436Z,4.00
2017-07-21T16:28:16.851Z,4.27
2017-07-21T16:30:44.419Z,4.13
2017-07-21T16:33:12.160Z,4.67
2017-07-21T16:35:39.777Z,4.70
2017-07-21T16:38:07.348Z,4.13
2017-07-21T16:40:35.704Z,4.77
2017-07-21T16:43:03.254Z,4.60
2017-07-21T16:45:30.799Z,4.70
2017-07-21T16:47:58.376Z,4.80
2017-07-21T16:50:25.906Z,4.10
2017-07-21T16:52:53.497Z,4.40
2017-07-21T16:55:21.039Z,4.73
2017-07-21T16:57:48.600Z,4.40
2017-07-21T17:00:16.209Z,3.73
2017-07-21T17:02:43.752Z,4.80
2017-07-21T17:05:12.155Z,4.47
2017-07-21T17:07:39.726Z,4.63
2017-07-21T17:10:07.274Z,4.63
2017-07-21T17:12:34.887Z,4.43
2017-07-21T17:15:02.532Z,5.30
2017-07-21T17:17:30.078Z,4.23
2017-07-21T17:19:57.636Z,4.20
2017-07-21T17:22:25.203Z,4.57
2017-07-21T17:24:52.765Z,4.80
2017-07-21T17:27:20.346Z,4.53
2017-07-21T17:29:48.668Z,5.20
2017-07-21T17:32:16.215Z,5.00
2017-07-21T17:34:43.790Z,5.47
2017-07-21T17:37:11.331Z,5.33
2017-07-21T17:39:38.955Z,4.50
2017-07-21T17:42:06.608Z,4.30
2017-07-21T17:44:34.148Z,4.17
2017-07-21T17:47:01.880Z,4.70
2017-07-21T17:49:29.432Z,5.20
2017-07-21T17:51:56.986Z,5.17
2017-07-21T17:54:24.564Z,4.93
2017-07-21T17:56:52.106Z,4.70
2017-07-21T17:59:19.688Z,5.77
2017-07-21T18:01:47.239Z,6.30
2017-07-21T18:04:14.849Z,5.30
2017-07-21T18:06:43.201Z,5.40
2017-07-21T18:09:10.869Z,5.37
2017-07-21T18:11:38.400Z,4.60
2017-07-21T18:14:06.030Z,5.17
2017-07-21T18:16:33.588Z,5.13
2017-07-21T18:19:01.149Z,5.60
2017-07-21T18:21:28.910Z,5.60
2017-07-21T18:23:56.501Z,5.10
2017-07-21T18:26:24.084Z,5.60
2017-07-21T18:28:51.794Z,6.30
2017-07-21T18:31:19.386Z,5.50
2017-07-21T18:33:46.945Z,5.80
2017-07-21T18:36:14.500Z,6.00
2017-07-21T18:38:42.084Z,6.60
2017-07-21T18:41:09.643Z,6.67
2017-07-21T18:43:37.219Z,6.00
2017-07-21T18:46:05.580Z,5.83
2017-07-21T18:48:33.991Z,5.43
2017-07-21T18:51:01.861Z,5.30
2017-07-21T18:53:29.429Z,5.83
2017-07-21T18:55:56.987Z,6.03
2017-07-21T18:58:24.725Z,5.20
2017-07-21T19:00:52.306Z,6.73
2017-07-21T19:03:19.901Z,9.17
2017-07-21T19:05:47.447Z,7.93
2017-07-21T19:08:15.030Z,10.83
2017-07-21T19:10:43.355Z,7.67
2017-07-21T19:13:10.943Z,7.53
2017-07-21T19:15:38.527Z,4.97
2017-07-21T19:18:06.079Z,6.77
2017-07-21T19:20:33.688Z,6.00
2017-07-21T19:23:01.289Z,6.40
2017-07-21T19:25:28.840Z,8.30
2017-07-21T19:27:56.379Z,7.23
2017-07-21T19:30:23.973Z,5.12
2017-07-21T19:32:51.521Z,4.37
2017-07-21T19:35:19.189Z,4.53
2017-07-21T19:37:46.917Z,2.90
2017-07-21T19:40:14.596Z,2.90
2017-07-21T19:42:42.181Z,2.77
2017-07-21T19:45:10.510Z,2.70
2017-07-21T19:47:38.108Z,2.87
2017-07-21T19:50:05.684Z,2.17
2017-07-21T19:52:33.992Z,2.33
2017-07-21T19:55:01.599Z,2.30
2017-07-21T19:57:29.176Z,2.20
2017-07-21T19:59:57.493Z,3.17
2017-07-21T20:02:25.090Z,3.20
2017-07-21T20:04:52.642Z,2.83
2017-07-21T20:07:21.235Z,3.30
2017-07-21T20:09:48.832Z,3.73
2017-07-21T20:12:16.385Z,3.30
2017-07-21T20:14:43.953Z,3.50
2017-07-21T20:17:11.505Z,3.80
2017-07-21T20:19:39.060Z,3.73
2017-07-21T20:22:06.651Z,3.10
2017-07-21T20:24:34.192Z,3.83
2017-07-21T20:27:01.767Z,3.90
2017-07-21T20:29:29.342Z,3.70
2017-07-21T20:31:56.982Z,3.50
2017-07-21T20:34:24.674Z,3.77
2017-07-21T20:36:52.248Z,3.47
2017-07-21T20:39:20.621Z,3.97
2017-07-21T20:41:48.966Z,4.13
2017-07-21T20:44:16.536Z,3.73
2017-07-21T20:46:44.197Z,3.00
2017-07-21T20:49:11.707Z,2.90
2017-07-21T20:51:39.320Z,3.60
2017-07-21T20:54:07.022Z,3.20
2017-07-21T20:56:34.569Z,2.80
2017-07-21T20:59:02.920Z,3.07
2017-07-21T21:01:30.536Z,3.00
2017-07-21T21:03:58.155Z,3.33
2017-07-21T21:06:26.464Z,2.97
2017-07-21T21:08:54.042Z,3.80
2017-07-21T21:11:21.625Z,3.37
2017-07-21T21:13:49.178Z,3.20
2017-07-21T21:16:16.762Z,3.00
2017-07-21T21:18:45.241Z,3.67
2017-07-21T21:21:13.548Z,3.30
2017-07-21T21:23:41.200Z,3.33
2017-07-21T21:26:08.799Z,2.70
2017-07-21T21:28:36.397Z,3.40
2017-07-21T21:31:04.717Z,2.40
2017-07-21T21:33:32.279Z,2.20
2017-07-21T21:35:59.953Z,2.13
2017-07-21T21:38:27.514Z,2.43
2017-07-21T21:40:55.052Z,2.50
2017-07-21T21:43:22.637Z,2.30
2017-07-21T21:45:50.286Z,2.67
2017-07-21T21:48:17.837Z,2.00
2017-07-21T21:50:45.386Z,2.07
2017-07-21T21:53:12.967Z,2.20
2017-07-21T21:55:40.534Z,2.50
2017-07-21T21:58:08.115Z,2.80
2017-07-21T22:00:36.413Z,3.10
2017-07-21T22:03:03.960Z,2.83
2017-07-21T22:05:32.295Z,2.13
2017-07-21T22:07:59.838Z,2.50
2017-07-21T22:10:27.395Z,3.00
2017-07-21T22:12:54.968Z,3.60
2017-07-21T22:15:34.435Z,4.93
2017-07-21T22:18:02.784Z,3.80
2017-07-21T22:20:30.327Z,4.00
2017-07-21T22:22:57.867Z,3.37
2017-07-21T22:25:25.488Z,5.70
2017-07-21T22:27:53.799Z,4.47
2017-07-21T22:30:21.383Z,4.97
2017-07-21T22:32:48.946Z,5.00
2017-07-21T22:35:16.581Z,5.77
2017-07-21T22:37:44.154Z,5.23
2017-07-21T22:40:11.703Z,6.47
2017-07-21T22:42:39.255Z,5.20
2017-07-21T22:45:06.883Z,5.60
2017-07-21T22:47:35.185Z,5.30
2017-07-21T22:50:02.734Z,4.93
2017-07-21T22:52:30.311Z,5.70
2017-07-21T22:54:57.854Z,4.87
2017-07-21T22:57:25.427Z,5.20
2017-07-21T22:59:53.013Z,5.50
2017-07-21T23:02:20.634Z,5.27
2017-07-21T23:04:48.276Z,6.50
2017-07-21T23:07:15.867Z,6.77
2017-07-21T23:09:43.461Z,5.40
2017-07-21T23:12:11.041Z,5.10
2017-07-21T23:14:38.597Z,5.90
2017-07-21T23:17:07.020Z,5.23
2017-07-21T23:19:34.632Z,4.50
2017-07-21T23:22:02.973Z,5.50
2017-07-21T23:24:30.527Z,5.30
2017-07-21T23:26:58.254Z,4.63
2017-07-21T23:29:25.838Z,5.30
2017-07-21T23:31:53.477Z,6.10
2017-07-21T23:34:21.057Z,5.57
2017-07-21T23:36:48.654Z,5.33
2017-07-21T23:39:17.023Z,5.40
2017-07-21T23:41:44.572Z,5.90
2017-07-21T23:44:12.121Z,5.27
2017-07-21T23:46:39.706Z,4.40
2017-07-21T23:49:08.034Z,5.57
2017-07-21T23:51:35.573Z,5.83
2017-07-21T23:54:03.169Z,5.90
2017-07-21T23:56:30.750Z,5.83
2017-07-21T23:58:58.331Z,6.10
